createdAt,value
2023-03-15T00:01:16.842Z,1.40
2023-03-15T00:03:45.923Z,1.70
2023-03-15T00:06:14.634Z,1.60
2023-03-15T00:08:47.923Z,2.28
2023-03-15T00:11:18.331Z,2.47
2023-03-15T00:13:47.232Z,2.33
2023-03-15T00:16:17.602Z,3.53
2023-03-15T00:18:47.070Z,2.78
2023-03-15T00:21:15.949Z,2.95
2023-03-15T00:23:44.381Z,2.97
2023-03-15T00:26:13.009Z,2.80
2023-03-15T00:28:43.267Z,2.60
2023-03-15T00:31:17.494Z,2.05
2023-03-15T00:33:46.678Z,1.95
2023-03-15T00:36:15.505Z,2.25
2023-03-15T00:38:45.090Z,1.80
2023-03-15T00:41:16.934Z,2.72
2023-03-15T00:43:47.858Z,2.45
2023-03-15T00:46:17.269Z,2.50
2023-03-15T00:48:48.226Z,2.67
2023-03-15T00:51:19.125Z,2.90
2023-03-15T00:53:48.956Z,2.92
2023-03-15T00:56:20.933Z,2.88
2023-03-15T00:58:52.907Z,3.00
2023-03-15T01:01:25.145Z,3.15
2023-03-15T01:03:54.261Z,3.55
2023-03-15T01:06:25.530Z,3.70
2023-03-15T01:08:55.870Z,3.90
2023-03-15T01:11:28.146Z,4.22
2023-03-15T01:14:00.662Z,4.50
2023-03-15T01:16:29.696Z,4.95
2023-03-15T01:18:58.029Z,4.45
2023-03-15T01:21:26.514Z,4.05
2023-03-15T01:23:55.576Z,4.20
2023-03-15T01:26:24.555Z,3.80
2023-03-15T01:28:52.932Z,3.72
2023-03-15T01:31:25.694Z,3.45
2023-03-15T01:33:54.050Z,3.33
2023-03-15T01:36:22.394Z,3.13
2023-03-15T01:38:51.093Z,3.28
2023-03-15T01:41:20.304Z,2.13
2023-03-15T01:43:48.600Z,2.47
2023-03-15T01:46:30.096Z,2.25
2023-03-15T01:49:08.560Z,1.92
2023-03-15T01:51:41.748Z,2.80
2023-03-15T01:54:17.041Z,2.40
2023-03-15T01:59:23.080Z,1.60
2023-03-15T02:01:54.596Z,1.60
2023-03-15T02:04:26.770Z,1.83
2023-03-15T02:07:00.573Z,1.63
2023-03-15T02:09:37.335Z,1.60
2023-03-15T02:12:07.010Z,1.80
2023-03-15T02:14:36.738Z,1.95
2023-03-15T02:17:06.911Z,1.58
2023-03-15T02:19:51.095Z,1.50
2023-03-15T02:22:33.480Z,1.40
2023-03-15T02:25:11.200Z,1.58
2023-03-15T02:27:41.545Z,1.75
2023-03-15T02:30:13.052Z,2.40
2023-03-15T02:32:41.704Z,2.42
2023-03-15T02:35:10.677Z,1.70
2023-03-15T02:37:39.122Z,1.65
2023-03-15T02:40:21.027Z,1.48
2023-03-15T02:42:56.373Z,1.73
2023-03-15T02:45:26.610Z,1.52
2023-03-15T02:47:55.272Z,1.70
2023-03-15T02:50:23.482Z,1.85
2023-03-15T02:52:52.603Z,1.95
2023-03-15T02:55:21.859Z,1.83
2023-03-15T02:57:52.280Z,1.80
2023-03-15T03:00:21.390Z,1.77
2023-03-15T03:02:50.460Z,1.92
2023-03-15T03:05:19.948Z,1.80
2023-03-15T03:07:50.174Z,1.60
2023-03-15T03:10:20.871Z,1.90
2023-03-15T03:12:53.373Z,1.13
2023-03-15T03:15:23.705Z,2.30
2023-03-15T03:17:52.103Z,1.83
2023-03-15T03:20:22.546Z,1.40
2023-03-15T03:22:50.934Z,1.85
2023-03-15T03:25:19.620Z,1.65
2023-03-15T03:27:47.872Z,1.75
2023-03-15T03:30:16.618Z,2.15
2023-03-15T03:32:46.325Z,2.10
2023-03-15T03:35:16.122Z,1.83
2023-03-15T03:37:44.576Z,2.38
2023-03-15T03:40:15.188Z,1.77
2023-03-15T03:42:43.527Z,1.40
2023-03-15T03:45:12.881Z,2.03
2023-03-15T03:47:41.165Z,1.98
2023-03-15T03:50:12.909Z,1.65
2023-03-15T03:52:43.889Z,2.47
2023-03-15T03:55:13.697Z,1.35
2023-03-15T03:57:42.489Z,1.40
2023-03-15T04:00:14.960Z,2.03
2023-03-15T04:02:43.868Z,2.10
2023-03-15T04:05:13.919Z,1.80
2023-03-15T04:07:42.507Z,1.83
2023-03-15T04:10:14.938Z,1.83
2023-03-15T04:12:44.257Z,1.92
2023-03-15T04:15:13.232Z,2.05
2023-03-15T04:17:41.545Z,1.88
2023-03-15T04:20:12.965Z,1.90
2023-03-15T04:22:49.666Z,2.08
2023-03-15T04:25:18.291Z,2.30
2023-03-15T04:27:58.631Z,1.95
2023-03-15T04:30:28.472Z,2.53
2023-03-15T04:32:59.256Z,2.22
2023-03-15T04:35:28.349Z,2.30
2023-03-15T04:37:58.752Z,2.10
2023-03-15T04:40:28.230Z,3.28
2023-03-15T04:42:56.898Z,2.30
2023-03-15T04:45:26.135Z,2.38
2023-03-15T04:47:55.509Z,1.70
2023-03-15T04:50:24.959Z,1.98
2023-03-15T04:52:53.591Z,1.70
2023-03-15T04:55:23.353Z,1.70
2023-03-15T04:57:51.717Z,1.70
2023-03-15T05:00:20.711Z,1.50
2023-03-15T05:02:54.879Z,1.77
2023-03-15T05:05:24.498Z,1.37
2023-03-15T05:07:52.878Z,3.38
2023-03-15T05:10:22.754Z,1.67
2023-03-15T05:12:51.180Z,1.85
2023-03-15T05:15:19.730Z,1.38
2023-03-15T05:17:48.881Z,1.40
2023-03-15T05:20:17.932Z,1.75
2023-03-15T05:22:46.076Z,1.75
2023-03-15T05:25:16.256Z,1.40
2023-03-15T05:27:46.840Z,2.45
2023-03-15T05:30:19.641Z,1.40
2023-03-15T05:32:48.114Z,1.75
2023-03-15T05:35:16.720Z,1.40
2023-03-15T05:37:45.346Z,6.00
2023-03-15T05:40:15.477Z,2.92
2023-03-15T05:42:45.553Z,1.80
2023-03-15T05:45:14.247Z,1.90
2023-03-15T05:47:42.589Z,1.35
2023-03-15T05:50:12.265Z,1.30
2023-03-15T05:52:40.608Z,1.35
2023-03-15T05:55:10.092Z,1.50
2023-03-15T05:57:38.387Z,1.60
2023-03-15T06:00:13.007Z,1.60
2023-03-15T06:02:41.572Z,2.00
2023-03-15T06:05:10.894Z,2.00
2023-03-15T06:07:39.533Z,2.40
2023-03-15T06:10:09.464Z,3.50
2023-03-15T06:12:38.185Z,5.57
2023-03-15T06:15:09.767Z,2.80
2023-03-15T06:17:38.071Z,2.63
2023-03-15T06:20:07.905Z,2.10
2023-03-15T06:22:36.280Z,1.80
2023-03-15T06:25:05.002Z,1.60
2023-03-15T06:27:33.437Z,1.88
2023-03-15T06:30:01.924Z,1.63
2023-03-15T06:32:34.858Z,2.00
2023-03-15T06:35:04.990Z,2.28
2023-03-15T06:37:35.659Z,1.90
2023-03-15T06:40:07.363Z,1.52
2023-03-15T06:42:35.791Z,2.15
2023-03-15T06:45:05.420Z,1.45
2023-03-15T06:47:35.278Z,2.03
2023-03-15T06:50:04.504Z,2.60
2023-03-15T06:52:32.888Z,2.33
2023-03-15T06:55:01.654Z,2.20
2023-03-15T06:57:30.159Z,2.20
2023-03-15T06:59:58.653Z,2.20
2023-03-15T07:02:26.947Z,2.20
2023-03-15T07:04:56.948Z,2.97
2023-03-15T07:07:25.263Z,2.00
2023-03-15T07:09:55.226Z,2.28
2023-03-15T07:12:23.807Z,2.60
2023-03-15T07:14:52.202Z,1.95
2023-03-15T07:17:20.530Z,2.20
2023-03-15T07:19:56.212Z,2.03
2023-03-15T07:22:26.789Z,2.10
2023-03-15T07:25:08.710Z,1.70
2023-03-15T07:27:37.123Z,1.85
2023-03-15T07:30:09.611Z,2.10
2023-03-15T07:32:39.008Z,1.67
2023-03-15T07:35:08.197Z,2.05
2023-03-15T07:37:44.124Z,1.83
2023-03-15T07:40:16.061Z,1.58
2023-03-15T07:42:44.575Z,1.85
2023-03-15T07:45:13.386Z,2.08
2023-03-15T07:47:42.069Z,1.85
2023-03-15T07:50:16.445Z,1.60
2023-03-15T07:52:46.670Z,1.60
2023-03-15T07:55:15.045Z,1.73
2023-03-15T07:57:43.272Z,1.40
2023-03-15T08:00:14.586Z,2.75
2023-03-15T08:02:42.858Z,1.73
2023-03-15T08:05:11.620Z,1.58
2023-03-15T08:07:39.875Z,1.52
2023-03-15T08:10:11.425Z,1.70
2023-03-15T08:12:42.926Z,2.17
2023-03-15T08:15:13.479Z,2.00
2023-03-15T08:17:43.420Z,1.70
2023-03-15T08:20:14.982Z,2.03
2023-03-15T08:22:44.569Z,1.65
2023-03-15T08:25:17.152Z,2.00
2023-03-15T08:27:45.864Z,1.23
2023-03-15T08:30:17.008Z,1.98
2023-03-15T08:32:47.464Z,1.55
2023-03-15T08:35:18.383Z,1.67
2023-03-15T08:37:47.930Z,1.60
2023-03-15T08:40:24.873Z,1.73
2023-03-15T08:42:53.964Z,1.35
2023-03-15T08:45:24.011Z,1.58
2023-03-15T08:47:55.448Z,2.47
2023-03-15T08:50:24.378Z,2.10
2023-03-15T08:52:54.689Z,1.55
2023-03-15T08:55:24.528Z,1.55
2023-03-15T08:57:53.006Z,1.50
2023-03-15T09:00:23.038Z,1.83
2023-03-15T09:02:53.474Z,1.08
2023-03-15T09:05:24.137Z,1.67
2023-03-15T09:07:54.018Z,1.92
2023-03-15T09:10:24.731Z,1.60
2023-03-15T09:12:54.225Z,1.85
2023-03-15T09:15:22.982Z,2.00
2023-03-15T09:17:52.076Z,1.38
2023-03-15T09:20:22.926Z,1.92
2023-03-15T09:22:53.721Z,2.13
2023-03-15T09:25:25.197Z,1.80
2023-03-15T09:27:53.841Z,2.15
2023-03-15T09:30:22.573Z,1.77
2023-03-15T09:32:51.510Z,1.52
2023-03-15T09:35:23.510Z,1.58
2023-03-15T09:37:52.176Z,1.63
2023-03-15T09:40:25.591Z,1.88
2023-03-15T09:43:22.532Z,1.88
2023-03-15T09:46:07.644Z,2.65
2023-03-15T09:48:42.837Z,2.17
2023-03-15T09:51:17.960Z,2.28
2023-03-15T09:53:55.585Z,1.30
2023-03-15T09:56:31.115Z,1.88
2023-03-15T09:59:03.080Z,1.58
2023-03-15T10:01:36.942Z,1.48
2023-03-15T10:04:14.574Z,1.80
2023-03-15T10:06:49.237Z,1.48
2023-03-15T10:09:26.626Z,1.42
2023-03-15T10:12:05.460Z,1.85
2023-03-15T10:15:09.959Z,1.67
2023-03-15T10:17:48.689Z,1.80
2023-03-15T10:20:22.652Z,2.63
2023-03-15T10:22:59.248Z,2.13
2023-03-15T10:25:29.916Z,1.73
2023-03-15T10:28:05.148Z,1.27
2023-03-15T10:30:36.554Z,1.70
2023-03-15T10:33:20.611Z,1.58
2023-03-15T10:35:49.904Z,1.55
2023-03-15T10:38:21.527Z,1.60
2023-03-15T10:40:51.877Z,1.80
2023-03-15T10:43:25.292Z,1.50
2023-03-15T10:46:02.589Z,1.30
2023-03-15T10:48:33.148Z,1.52
2023-03-15T10:51:06.344Z,1.67
2023-03-15T10:53:35.292Z,1.10
2023-03-15T10:56:08.672Z,1.60
2023-03-15T10:59:01.687Z,1.80
2023-03-15T11:01:37.673Z,2.13
2023-03-15T11:04:17.907Z,1.50
2023-03-15T11:06:50.814Z,2.00
2023-03-15T11:09:23.497Z,1.35
2023-03-15T11:12:01.272Z,1.35
2023-03-15T11:14:38.488Z,1.23
2023-03-15T11:17:16.101Z,1.40
2023-03-15T11:19:55.072Z,1.17
2023-03-15T11:22:24.325Z,1.52
2023-03-15T11:24:54.550Z,1.60
2023-03-15T11:27:26.058Z,1.48
2023-03-15T11:30:00.274Z,1.25
2023-03-15T11:32:32.988Z,1.67
2023-03-15T11:35:05.767Z,1.42
2023-03-15T11:37:40.450Z,1.60
2023-03-15T11:40:22.141Z,1.83
2023-03-15T11:42:56.062Z,1.50
2023-03-15T11:45:36.656Z,1.02
2023-03-15T11:48:14.226Z,0.90
2023-03-15T11:50:42.882Z,1.25
2023-03-15T11:53:15.539Z,1.27
2023-03-15T11:55:51.437Z,1.55
2023-03-15T11:58:33.507Z,0.90
2023-03-15T12:01:08.181Z,1.30
2023-03-15T12:03:41.544Z,1.25
2023-03-15T12:06:38.949Z,1.33
2023-03-15T12:09:49.855Z,1.30
2023-03-15T12:12:45.852Z,1.98
2023-03-15T12:15:47.062Z,1.00
2023-03-15T12:18:41.127Z,1.17
2023-03-15T12:21:20.630Z,1.20
2023-03-15T12:24:00.050Z,1.55
2023-03-15T12:26:39.543Z,1.50
2023-03-15T12:29:16.081Z,1.70
2023-03-15T12:32:07.695Z,1.40
2023-03-15T12:34:49.135Z,1.75
2023-03-15T12:37:22.604Z,1.73
2023-03-15T12:39:53.950Z,1.73
2023-03-15T12:43:03.364Z,1.40
2023-03-15T12:45:45.518Z,1.30
2023-03-15T12:48:30.081Z,1.88
2023-03-15T12:51:34.686Z,1.60
2023-03-15T12:54:05.781Z,1.30
2023-03-15T12:56:55.711Z,1.52
2023-03-15T12:59:33.435Z,1.30
2023-03-15T13:02:04.871Z,1.45
2023-03-15T13:04:33.661Z,1.73
2023-03-15T13:07:24.684Z,1.67
2023-03-15T13:10:23.752Z,1.38
2023-03-15T13:12:59.724Z,1.90
2023-03-15T13:15:35.372Z,1.52
2023-03-15T13:18:18.946Z,1.50
2023-03-15T13:21:06.466Z,1.45
2023-03-15T13:23:36.315Z,1.50
2023-03-15T13:26:21.656Z,1.17
2023-03-15T13:28:55.692Z,1.45
2023-03-15T13:31:28.043Z,1.38
2023-03-15T13:34:00.310Z,1.27
2023-03-15T13:36:54.973Z,1.52
2023-03-15T13:39:30.940Z,1.35
2023-03-15T13:42:05.900Z,1.80
2023-03-15T13:44:35.371Z,1.52
2023-03-15T13:47:03.653Z,3.80
2023-03-15T13:49:34.755Z,1.77
2023-03-15T13:52:12.384Z,1.75
2023-03-15T13:54:44.470Z,1.42
2023-03-15T13:57:16.517Z,1.80
2023-03-15T13:59:52.693Z,1.70
2023-03-15T14:02:26.103Z,1.30
2023-03-15T14:04:59.652Z,1.30
2023-03-15T14:07:35.255Z,1.40
2023-03-15T14:10:29.877Z,1.33
2023-03-15T14:13:00.832Z,1.15
2023-03-15T14:15:39.506Z,1.30
2023-03-15T14:18:20.649Z,1.50
2023-03-15T14:20:55.623Z,1.20
2023-03-15T14:23:27.430Z,1.20
2023-03-15T14:26:04.725Z,1.70
2023-03-15T14:28:34.168Z,1.35
2023-03-15T14:31:03.490Z,1.70
2023-03-15T14:33:37.528Z,1.90
2023-03-15T14:36:10.098Z,2.30
2023-03-15T14:38:40.290Z,1.63
2023-03-15T14:41:26.629Z,1.45
2023-03-15T14:43:56.434Z,1.15
2023-03-15T14:46:24.860Z,1.70
2023-03-15T14:48:53.703Z,1.38
2023-03-15T14:51:24.592Z,1.50
2023-03-15T14:53:57.424Z,1.52
2023-03-15T14:56:27.560Z,2.80
2023-03-15T14:58:55.812Z,3.38
2023-03-15T15:01:28.276Z,1.90
2023-03-15T15:04:00.258Z,2.22
2023-03-15T15:06:31.897Z,1.75
2023-03-15T15:09:02.094Z,1.10
2023-03-15T15:11:31.731Z,1.30
2023-03-15T15:14:00.074Z,1.65
2023-03-15T15:16:28.536Z,3.92
2023-03-15T15:18:56.786Z,1.55
2023-03-15T15:21:33.532Z,1.17
2023-03-15T15:24:04.188Z,1.38
2023-03-15T15:26:34.587Z,1.30
2023-03-15T15:29:03.142Z,1.15
2023-03-15T15:31:34.397Z,1.00
2023-03-15T15:34:03.251Z,1.40
2023-03-15T15:36:34.889Z,1.10
2023-03-15T15:39:07.396Z,1.10
2023-03-15T15:41:37.071Z,1.25
2023-03-15T15:44:05.507Z,1.40
2023-03-15T15:46:33.823Z,1.52
2023-03-15T15:49:02.074Z,1.17
2023-03-15T15:51:32.738Z,1.10
2023-03-15T15:54:03.028Z,1.17
2023-03-15T15:56:34.829Z,1.30
2023-03-15T15:59:07.868Z,1.60
2023-03-15T16:01:56.816Z,1.33
2023-03-15T16:04:28.747Z,1.40
2023-03-15T16:07:00.310Z,1.25
2023-03-15T16:09:31.724Z,1.90
2023-03-15T16:12:00.284Z,1.45
2023-03-15T16:14:29.993Z,1.25
2023-03-15T16:16:58.247Z,1.05
2023-03-15T16:19:26.690Z,1.25
2023-03-15T16:21:58.225Z,1.30
2023-03-15T16:24:30.805Z,1.40
2023-03-15T16:27:03.183Z,1.30
2023-03-15T16:29:39.194Z,1.02
2023-03-15T16:32:19.237Z,1.23
2023-03-15T16:34:54.901Z,1.30
2023-03-15T16:37:27.438Z,1.17
2023-03-15T16:39:57.177Z,1.38
2023-03-15T16:42:26.238Z,1.20
2023-03-15T16:44:56.163Z,1.17
2023-03-15T16:47:24.985Z,1.45
2023-03-15T16:49:53.297Z,2.35
2023-03-15T16:52:22.316Z,1.85
2023-03-15T16:54:50.931Z,2.33
2023-03-15T16:57:23.244Z,1.50
2023-03-15T16:59:51.969Z,1.58
2023-03-15T17:02:29.075Z,2.65
2023-03-15T17:04:57.809Z,1.70
2023-03-15T17:07:32.889Z,1.40
2023-03-15T17:10:09.752Z,1.40
2023-03-15T17:12:39.344Z,1.20
2023-03-15T17:15:09.693Z,1.02
2023-03-15T17:17:39.786Z,0.95
2023-03-15T17:20:17.080Z,1.13
2023-03-15T17:22:53.097Z,1.45
2023-03-15T17:25:24.475Z,1.80
2023-03-15T17:27:53.633Z,1.38
2023-03-15T17:30:26.372Z,1.20
2023-03-15T17:32:57.428Z,1.10
2023-03-15T17:35:30.830Z,1.10
2023-03-15T17:37:59.853Z,1.30
2023-03-15T18:00:45.920Z,1.98
2023-03-15T18:03:31.652Z,1.65
2023-03-15T18:09:15.517Z,1.70
2023-03-15T18:11:49.357Z,1.90
2023-03-15T18:23:34.203Z,1.75
2023-03-15T18:26:44.713Z,2.17
2023-03-15T18:37:59.336Z,2.60
2023-03-15T18:40:52.093Z,2.22
2023-03-15T18:44:06.736Z,2.03
2023-03-15T18:46:55.077Z,2.00
2023-03-15T19:04:08.310Z,2.10
2023-03-15T19:06:48.882Z,2.95
2023-03-15T19:18:43.426Z,2.67
2023-03-15T19:45:36.453Z,2.90
2023-03-15T19:54:32.259Z,2.40
2023-03-15T19:57:15.312Z,2.58
2023-03-15T19:59:50.519Z,2.92
2023-03-15T20:08:28.887Z,2.90
2023-03-15T20:11:20.441Z,3.00
2023-03-15T20:17:04.999Z,2.65
2023-03-15T20:22:41.481Z,2.40
2023-03-15T20:37:44.323Z,2.55
2023-03-15T20:40:45.681Z,2.63
2023-03-15T20:43:18.810Z,2.80
2023-03-15T20:53:07.398Z,2.60
2023-03-15T20:55:51.341Z,2.95
2023-03-15T21:01:22.904Z,3.30
2023-03-15T21:03:57.052Z,3.22
2023-03-15T21:06:32.001Z,3.08
2023-03-15T21:09:04.362Z,3.35
2023-03-15T21:11:36.103Z,3.85
2023-03-15T21:14:06.255Z,3.88
2023-03-15T21:16:36.138Z,3.72
2023-03-15T21:19:06.681Z,4.03
2023-03-15T21:21:37.819Z,4.53
2023-03-15T21:24:09.417Z,4.82
2023-03-15T21:26:40.065Z,4.95
2023-03-15T21:29:12.979Z,5.53
2023-03-15T21:31:42.635Z,4.72
2023-03-15T21:34:16.509Z,4.97
2023-03-15T21:36:47.648Z,4.57
2023-03-15T21:39:17.845Z,5.43
2023-03-15T21:41:47.617Z,5.47
2023-03-15T21:44:23.026Z,5.05
2023-03-15T21:49:31.338Z,4.80
2023-03-15T21:52:02.687Z,4.65
2023-03-15T21:54:33.259Z,4.88
2023-03-15T21:57:04.343Z,4.70
2023-03-15T21:59:33.247Z,4.30
2023-03-15T22:02:03.115Z,5.65
2023-03-15T22:04:34.239Z,4.68
2023-03-15T22:07:09.897Z,4.10
2023-03-15T22:09:41.947Z,4.05
2023-03-15T22:12:14.167Z,4.10
2023-03-15T22:14:51.650Z,4.07
2023-03-15T22:17:29.076Z,4.68
2023-03-15T22:22:56.652Z,3.75
2023-03-15T22:25:26.709Z,4.13
2023-03-15T22:27:59.057Z,4.30
2023-03-15T22:30:32.836Z,4.32
2023-03-15T22:33:02.446Z,3.97
2023-03-15T22:35:31.330Z,4.03
2023-03-15T22:38:10.317Z,3.78
2023-03-15T22:40:43.134Z,4.10
2023-03-15T22:43:12.942Z,3.90
2023-03-15T22:45:44.079Z,3.90
2023-03-15T22:48:13.432Z,4.30
2023-03-15T22:50:42.080Z,4.45
2023-03-15T22:53:12.824Z,4.07
2023-03-15T22:55:45.811Z,4.75
2023-03-15T22:58:15.613Z,3.88
2023-03-15T23:00:45.558Z,4.20
2023-03-15T23:03:14.822Z,4.18
2023-03-15T23:05:44.417Z,4.30
2023-03-15T23:08:15.740Z,4.53
2023-03-15T23:10:45.596Z,4.65
2023-03-15T23:13:14.674Z,4.28
2023-03-15T23:15:45.195Z,3.88
2023-03-15T23:18:17.279Z,4.15
2023-03-15T23:20:47.014Z,4.40
2023-03-15T23:23:17.876Z,4.40
2023-03-15T23:28:40.961Z,4.13
2023-03-15T23:31:09.379Z,4.85
2023-03-15T23:33:37.756Z,4.40
2023-03-15T23:36:08.117Z,4.38
2023-03-15T23:38:38.102Z,4.43
2023-03-15T23:41:07.015Z,4.60
2023-03-15T23:43:35.295Z,4.65
2023-03-15T23:46:06.211Z,4.55
2023-03-15T23:48:36.425Z,4.55
2023-03-15T23:51:05.306Z,4.68
2023-03-15T23:53:33.993Z,4.35
2023-03-15T23:56:03.945Z,4.47
2023-03-15T23:58:32.362Z,4.35
